^^
MeteoGriva-Weather Station Historical Data
Daily Summary for March 12, 2020 Units:  Metric    English   Both
Daily Weekly Monthly Yearly Custom
  High: Low: Average:
Temperature: 15.3 °C 9.1 °C 11.3 °C
Dew Point: 11.4 °C 8.1 °C 9.7 °C
Humidity: 99% 76.1% 90%
Wind Speed: 2.1km/h 0km/h 0.1km/h
Wind Gust: 12.2km/h - -
Wind- - SSE
Pressure: 1026.8 hPa 1023.4 hPa -
Precipitation: 0.0 mm    
Historical Graphs
 
 
Tabular Data for March 12, 2020
Time Temperature Dew Point Pressure Wind Wind Speed Wind Gust Humidity Rainfall Rate (Hourly) solar
00:04 10.9 °C 10.7 °C 1026.8 hPa Calm     99% 0.0 mm 0 W/m2
00:09 10.9 °C 10.7 °C 1026.8 hPa Calm     99% 0.0 mm 0 W/m2
00:14 10.9 °C 10.7 °C 1026.8 hPa Calm     99% 0.0 mm 0 W/m2
00:19 10.9 °C 10.7 °C 1026.8 hPa Calm     99% 0.0 mm 0 W/m2
00:24 10.9 °C 10.7 °C 1026.8 hPa Calm     99% 0.0 mm 0 W/m2
00:29 11 °C 10.8 °C 1026.8 hPa Calm     99% 0.0 mm 0 W/m2
00:34 11 °C 10.8 °C 1026.8 hPa Calm     99% 0.0 mm 0 W/m2
00:39 11 °C 10.7 °C 1026.8 hPa Calm     98.3% 0.0 mm 0 W/m2
00:44 11 °C 10.5 °C 1026.4 hPa Calm     96.8% 0.0 mm 0 W/m2
00:49 11.2 °C 10.5 °C 1026.8 hPa Calm     95.9% 0.0 mm 0 W/m2
00:54 11.2 °C 10.4 °C 1026.8 hPa Calm     95% 0.0 mm 0 W/m2
00:59 11.2 °C 10.4 °C 1026.8 hPa Calm     95% 0.0 mm 0 W/m2
01:04 11.2 °C 10.4 °C 1026.8 hPa Calm     95% 0.0 mm 0 W/m2
01:09 11.3 °C 10.5 °C 1026.8 hPa Calm     95% 0.0 mm 0 W/m2
01:14 11.3 °C 10.5 °C 1026.4 hPa Calm     95.1% 0.0 mm 0 W/m2
01:19 11.3 °C 10.7 °C 1026.8 hPa Calm     96% 0.0 mm 0 W/m2
01:24 11.3 °C 10.7 °C 1026.8 hPa Calm     96% 0.0 mm 0 W/m2
01:29 11.3 °C 10.7 °C 1026.4 hPa Calm     96.3% 0.0 mm 0 W/m2
01:34 11.3 °C 10.7 °C 1026.4 hPa Calm     96% 0.0 mm 0 W/m2
01:39 11.3 °C 10.7 °C 1026.4 hPa Calm     96.4% 0.0 mm 0 W/m2
01:44 11.2 °C 10.7 °C 1026.4 hPa Calm     97% 0.0 mm 0 W/m2
01:49 11.1 °C 10.6 °C 1026.8 hPa Calm     97% 0.0 mm 0 W/m2
01:54 10.9 °C 10.6 °C 1026.4 hPa Calm     97.9% 0.0 mm 0 W/m2
01:59 10.9 °C 10.6 °C 1026.8 hPa Calm     98% 0.0 mm 0 W/m2
02:04 10.9 °C 10.6 °C 1026.8 hPa Calm     98% 0.0 mm 0 W/m2
02:09 10.8 °C 10.4 °C 1026.8 hPa Calm     97.6% 0.0 mm 0 W/m2
02:14 10.7 °C 10.4 °C 1026.8 hPa Calm     97.8% 0.0 mm 0 W/m2
02:19 10.7 °C 10.4 °C 1026.8 hPa Calm     98% 0.0 mm 0 W/m2
02:24 10.7 °C 10.4 °C 1026.4 hPa Calm     97.9% 0.0 mm 0 W/m2
02:29 10.7 °C 10.2 °C 1026.4 hPa Calm     97% 0.0 mm 0 W/m2
02:34 10.7 °C 10.2 °C 1026.4 hPa Calm     96.9% 0.0 mm 0 W/m2
02:39 10.7 °C 10.3 °C 1026.4 hPa Calm     97.3% 0.0 mm 0 W/m2
02:44 10.7 °C 10.2 °C 1026.4 hPa Calm     97% 0.0 mm 0 W/m2
02:49 10.7 °C 10.3 °C 1026.4 hPa Calm     97.6% 0.0 mm 0 W/m2
02:54 10.7 °C 10.4 °C 1026.1 hPa Calm     98% 0.0 mm 0 W/m2
02:59 10.7 °C 10.4 °C 1026.4 hPa Calm     98.1% 0.0 mm 0 W/m2
03:04 10.7 °C 10.5 °C 1026.1 hPa Calm     99% 0.0 mm 0 W/m2
03:09 10.6 °C 10.4 °C 1026.1 hPa Calm     99% 0.0 mm 0 W/m2
03:14 10.6 °C 10.4 °C 1026.4 hPa Calm     99% 0.0 mm 0 W/m2
03:19 10.6 °C 10.4 °C 1026.4 hPa Calm     99% 0.0 mm 0 W/m2
03:24 10.6 °C 10.3 °C 1026.1 hPa Calm     99% 0.0 mm 0 W/m2
03:29 10.5 °C 10.3 °C 1026.1 hPa Calm     99% 0.0 mm 0 W/m2
03:34 10.4 °C 10.2 °C 1026.1 hPa Calm     99% 0.0 mm 0 W/m2
03:39 10.4 °C 10.2 °C 1026.1 hPa Calm     99% 0.0 mm 0 W/m2
03:44 10.4 °C 10.2 °C 1026.1 hPa Calm     99% 0.0 mm 0 W/m2
03:49 10.4 °C 10.2 °C 1026.1 hPa Calm     99% 0.0 mm 0 W/m2
03:54 10.4 °C 10.2 °C 1025.7 hPa Calm     99% 0.0 mm 0 W/m2
03:59 10.4 °C 10.2 °C 1025.7 hPa Calm     99% 0.0 mm 0 W/m2
04:04 10.4 °C 10.2 °C 1025.7 hPa Calm     99% 0.0 mm 0 W/m2
04:09 10.3 °C 10.2 °C 1026.1 hPa Calm     99% 0.0 mm 0 W/m2
04:14 10.2 °C 10 °C 1026.1 hPa Calm     99% 0.0 mm 0 W/m2
04:19 10.2 °C 10 °C 1025.7 hPa Calm     99% 0.0 mm 0 W/m2
04:24 10.2 °C 10 °C 1025.7 hPa Calm     99% 0.0 mm 0 W/m2
04:29 10.2 °C 10 °C 1025.7 hPa Calm     98.8% 0.0 mm 0 W/m2
04:34 10.3 °C 10 °C 1025.7 hPa Calm     98.2% 0.0 mm 0 W/m2
04:39 10.3 °C 10 °C 1025.7 hPa Calm     98% 0.0 mm 0 W/m2
04:44 10.3 °C 9.9 °C 1025.7 hPa Calm     97.4% 0.0 mm 0 W/m2
04:49 10.3 °C 9.9 °C 1025.7 hPa Calm     97.3% 0.0 mm 0 W/m2
04:54 10.5 °C 10 °C 1025.7 hPa Calm     97% 0.0 mm 0 W/m2
04:59 10.5 °C 10 °C 1025.7 hPa Calm     97.1% 0.0 mm 0 W/m2
05:04 10.5 °C 9.9 °C 1025.7 hPa Calm     96.4% 0.0 mm 0 W/m2
05:09 10.5 °C 9.7 °C 1025.7 hPa Calm     95.1% 0.0 mm 0 W/m2
05:14 10.5 °C 9.9 °C 1025.7 hPa Calm     96% 0.0 mm 0 W/m2
05:19 10.4 °C 9.8 °C 1025.7 hPa Calm     96% 0.0 mm 0 W/m2
05:24 10.4 °C 9.6 °C 1025.7 hPa Calm     95.2% 0.0 mm 0 W/m2
05:29 10.4 °C 9.8 °C 1025.7 hPa Calm     96% 0.0 mm 0 W/m2
05:34 10.3 °C 9.7 °C 1025.7 hPa Calm     96.2% 0.0 mm 0 W/m2
05:39 10.2 °C 9.6 °C 1025.7 hPa Calm     96% 0.0 mm 0 W/m2
05:44 10.2 °C 9.6 °C 1025.7 hPa Calm     96% 0.0 mm 0 W/m2
05:49 10.2 °C 9.6 °C 1025.4 hPa Calm     96% 0.0 mm 0 W/m2
05:54 10.1 °C 9.6 °C 1025.7 hPa Calm     96.5% 0.0 mm 0 W/m2
05:59 10.1 °C 9.7 °C 1025.7 hPa Calm     97.6% 0.0 mm 0 W/m2
06:04 10.1 °C 9.6 °C 1025.7 hPa Calm     97% 0.0 mm 0 W/m2
06:09 10 °C 9.7 °C 1025.7 hPa Calm     97.9% 0.0 mm 0 W/m2
06:14 9.8 °C 9.5 °C 1025.7 hPa Calm     97.8% 0.0 mm 0 W/m2
06:19 9.8 °C 9.4 °C 1025.7 hPa Calm     97.5% 0.0 mm 0 W/m2
06:24 9.8 °C 9.3 °C 1025.4 hPa Calm     97% 0.0 mm 0 W/m2
06:29 9.8 °C 9.3 °C 1025.4 hPa Calm     96.8% 0.0 mm 0 W/m2
06:34 9.8 °C 9.2 °C 1025.4 hPa Calm     96% 0.0 mm 0 W/m2
06:39 9.8 °C 9.2 °C 1025.4 hPa Calm     96.3% 0.0 mm 0 W/m2
06:44 9.8 °C 9.3 °C 1025.4 hPa Calm     96.7% 0.0 mm 0 W/m2
06:49 9.8 °C 9.3 °C 1025.4 hPa Calm     97.3% 0.0 mm 0 W/m2
06:54 9.7 °C 9.3 °C 1025.4 hPa Calm     97.2% 0.0 mm 0 W/m2
06:59 9.7 °C 9.3 °C 1025.7 hPa Calm     97.6% 0.0 mm 0 W/m2
07:04 9.7 °C 9.1 °C 1025.7 hPa Calm     96.3% 0.0 mm 0 W/m2
07:09 9.7 °C 9.1 °C 1025.7 hPa Calm     96% 0.0 mm 0 W/m2
07:14 9.8 °C 9.2 °C 1025.4 hPa Calm     96% 0.0 mm 0 W/m2
07:19 9.8 °C 9.3 °C 1025.7 hPa Calm     96.9% 0.0 mm 0 W/m2
07:24 9.8 °C 9.3 °C 1025.7 hPa Calm     96.6% 0.0 mm 2 W/m2
07:29 9.8 °C 9.2 °C 1025.7 hPa Calm     96% 0.0 mm 4 W/m2
07:34 9.9 °C 9.3 °C 1025.7 hPa Calm     96% 0.0 mm 6 W/m2
07:39 9.9 °C 9.3 °C 1025.7 hPa Calm     96% 0.0 mm 8 W/m2
07:44 9.9 °C 9.3 °C 1025.7 hPa Calm     96% 0.0 mm 11 W/m2
07:49 9.9 °C 9.3 °C 1026.1 hPa Calm     96% 0.0 mm 13 W/m2
07:54 9.9 °C 9.3 °C 1026.1 hPa Calm     96% 0.0 mm 17 W/m2
07:59 9.9 °C 9.4 °C 1026.1 hPa Calm     96.9% 0.0 mm 20 W/m2
08:04 9.9 °C 9.4 °C 1026.1 hPa Calm     97% 0.0 mm 23 W/m2
08:09 9.9 °C 9.4 °C 1026.1 hPa Calm     96.9% 0.0 mm 25 W/m2
08:14 10.2 °C 9.6 °C 1026.1 hPa Calm     96.2% 0.0 mm 28 W/m2
08:19 10.2 °C 9.5 °C 1026.1 hPa Calm     95.7% 0.0 mm 31 W/m2
08:24 10.2 °C 9.4 °C 1026.4 hPa Calm     95% 0.0 mm 35 W/m2
08:29 10.3 °C 9.5 °C 1026.4 hPa Calm     95% 0.0 mm 39 W/m2
08:34 10.5 °C 9.8 °C 1026.4 hPa Calm     95.4% 0.0 mm 42 W/m2
08:39 10.5 °C 10 °C 1026.4 hPa Calm     97% 0.0 mm 45 W/m2
08:44 10.5 °C 9.9 °C 1026.4 hPa Calm     96% 0.0 mm 49 W/m2
08:49 10.5 °C 9.5 °C 1026.4 hPa Calm     93.8% 0.0 mm 52 W/m2
08:54 10.8 °C 9.7 °C 1026.4 hPa Calm     92.6% 0.0 mm 56 W/m2
08:59 10.9 °C 9.9 °C 1026.4 hPa Calm     93.7% 0.0 mm 60 W/m2
09:04 10.9 °C 10 °C 1026.4 hPa Calm     93.8% 0.0 mm 64 W/m2
09:09 10.9 °C 9.9 °C 1026.4 hPa Calm     93.6% 0.0 mm 69 W/m2
09:14 11 °C 10 °C 1026.4 hPa Calm     94% 0.0 mm 75 W/m2
09:19 11 °C 10.2 °C 1026.4 hPa Calm     94.6% 0.0 mm 80 W/m2
09:24 11 °C 10 °C 1026.4 hPa Calm     93.3% 0.0 mm 83 W/m2
09:29 11 °C 10 °C 1026.4 hPa Calm     93.6% 0.0 mm 85 W/m2
09:34 11 °C 10.1 °C 1026.4 hPa Calm     94.4% 0.0 mm 85 W/m2
09:39 10.9 °C 9.9 °C 1026.4 hPa Calm     93.6% 0.0 mm 88 W/m2
09:44 10.9 °C 9.7 °C 1026.1 hPa Calm     92.3% 0.0 mm 92 W/m2
09:49 10.9 °C 9.6 °C 1026.4 hPa Calm     91.4% 0.0 mm 94 W/m2
09:54 11.1 °C 9.7 °C 1026.4 hPa Calm     91.4% 0.0 mm 98 W/m2
09:59 11.2 °C 9.8 °C 1026.4 hPa Calm     91.4% 0.0 mm 100 W/m2
10:04 11.2 °C 9.7 °C 1026.4 hPa Calm     90.6% 0.0 mm 101 W/m2
10:09 11.2 °C 9.7 °C 1026.4 hPa Calm     90.4% 0.0 mm 103 W/m2
10:14 11.3 °C 9.7 °C 1026.4 hPa Calm     89.3% 0.0 mm 107 W/m2
10:19 11.5 °C 9.6 °C 1026.4 hPa Calm     88.2% 0.0 mm 112 W/m2
10:24 11.5 °C 9.6 °C 1026.4 hPa Calm     88.1% 0.0 mm 121 W/m2
10:29 11.6 °C 9.7 °C 1026.1 hPa Calm     88% 0.0 mm 129 W/m2
10:34 11.9 °C 10 °C 1026.4 hPa Calm     88.6% 0.0 mm 131 W/m2
10:39 12 °C 10.1 °C 1026.4 hPa Calm     88.2% 0.0 mm 137 W/m2
10:44 12 °C 9.8 °C 1026.4 hPa Calm     86.2% 0.0 mm 144 W/m2
10:49 12.1 °C 9.8 °C 1026.4 hPa Calm     86% 0.0 mm 147 W/m2
10:54 12.5 °C 10 °C 1026.4 hPa Calm     84.7% 0.0 mm 150 W/m2
10:59 12.8 °C 10.3 °C 1026.4 hPa Calm     84.7% 0.0 mm 162 W/m2
11:04 12.8 °C 10.2 °C 1026.4 hPa Calm     84.4% 0.0 mm 177 W/m2
11:09 12.8 °C 10.1 °C 1026.4 hPa SSE 1.1 km/h 7.9 km/h 83.4% 0.0 mm 213 W/m2
11:14 13.6 °C 10.4 °C 1026.1 hPa Calm   4 km/h 81.1% 0.0 mm 182 W/m2
11:19 14 °C 11 °C 1026.1 hPa SSE 0.3 km/h 7.9 km/h 82.1% 0.0 mm 185 W/m2
11:24 14 °C 11 °C 1026.1 hPa SSE 0.7 km/h 12.2 km/h 82% 0.0 mm 187 W/m2
11:29 13.9 °C 10.9 °C 1026.1 hPa SSE 0.5 km/h 12.2 km/h 82% 0.0 mm 189 W/m2
11:34 14 °C 11 °C 1026.1 hPa South 0.2 km/h 7.9 km/h 81.8% 0.0 mm 192 W/m2
11:39 14.1 °C 10.9 °C 1025.7 hPa SSE 0.3 km/h 7.9 km/h 81% 0.0 mm 190 W/m2
11:44 14.1 °C 11 °C 1025.7 hPa ESE 0.7 km/h 7.9 km/h 81.7% 0.0 mm 194 W/m2
11:49 14.1 °C 10.9 °C 1025.7 hPa Calm   7.9 km/h 81.1% 0.0 mm 195 W/m2
11:54 14.3 °C 10.9 °C 1025.7 hPa SE 1.8 km/h 7.9 km/h 80.2% 0.0 mm 263 W/m2
11:59 14.6 °C 10.9 °C 1025.7 hPa South 0.9 km/h 7.9 km/h 78.5% 0.0 mm 337 W/m2
12:04 14.7 °C 10.6 °C 1025.7 hPa SSE 0.6 km/h 12.2 km/h 76.4% 0.0 mm 346 W/m2
12:09 14.9 °C 10.9 °C 1025.4 hPa ESE 1.2 km/h 12.2 km/h 77.1% 0.0 mm 344 W/m2
12:14 15 °C 11.1 °C 1025.4 hPa SSE 2.1 km/h 12.2 km/h 77.2% 0.0 mm 319 W/m2
12:19 15.3 °C 11.1 °C 1025.4 hPa SE 0.4 km/h 7.9 km/h 76.1% 0.0 mm 161 W/m2
12:24 15.3 °C 11.2 °C 1025.4 hPa South 0.2 km/h 12.2 km/h 76.9% 0.0 mm 141 W/m2
12:29 15.2 °C 11.4 °C 1025.1 hPa SE 0.9 km/h 7.9 km/h 78.4% 0.0 mm 129 W/m2
12:34 14.7 °C 11.1 °C 1025.1 hPa Calm   4 km/h 79.1% 0.0 mm 124 W/m2
12:39 14.2 °C 10.6 °C 1025.1 hPa Calm   4 km/h 78.6% 0.0 mm 197 W/m2
12:44 14.2 °C 10.7 °C 1025.1 hPa Calm     79.7% 0.0 mm 118 W/m2
12:49 14.1 °C 10.9 °C 1025.1 hPa ENE 1 km/h 7.9 km/h 81.2% 0.0 mm 116 W/m2
12:54 13.9 °C 10.6 °C 1024.7 hPa ENE 0.1 km/h 4 km/h 80.8% 0.0 mm 110 W/m2
12:59 13.6 °C 10.5 °C 1024.7 hPa ENE 0.9 km/h 7.9 km/h 81.7% 0.0 mm 115 W/m2
13:04 13.5 °C 10.5 °C 1024.7 hPa Calm   4 km/h 82% 0.0 mm 102 W/m2
13:09 13.5 °C 10.3 °C 1024.7 hPa SSE 0.3 km/h 7.9 km/h 81.1% 0.0 mm 95 W/m2
13:14 13.5 °C 10.4 °C 1024.4 hPa Calm     81.8% 0.0 mm 92 W/m2
13:19 13.3 °C 10.3 °C 1024.4 hPa Calm     82% 0.0 mm 92 W/m2
13:24 13.3 °C 10.1 °C 1024.4 hPa Calm     81.1% 0.0 mm 85 W/m2
13:29 13.4 °C 10 °C 1024.4 hPa Calm     80.1% 0.0 mm 80 W/m2
13:34 13.5 °C 10.2 °C 1024.4 hPa SE 0.6 km/h 7.9 km/h 80.8% 0.0 mm 83 W/m2
13:39 13.6 °C 10.2 °C 1024.0 hPa Calm   4 km/h 80% 0.0 mm 85 W/m2
13:44 13.6 °C 10.2 °C 1024.0 hPa Calm     79.9% 0.0 mm 87 W/m2
13:49 13.6 °C 10 °C 1024.0 hPa Calm     79% 0.0 mm 87 W/m2
13:54 13.7 °C 10 °C 1024.0 hPa Calm     78.7% 0.0 mm 83 W/m2
13:59 13.7 °C 10.1 °C 1024.0 hPa Calm     78.7% 0.0 mm 79 W/m2
14:04 13.7 °C 10.1 °C 1024.0 hPa Calm     79% 0.0 mm 82 W/m2
14:09 13.7 °C 10.1 °C 1024.0 hPa SSE 0.8 km/h 7.9 km/h 79.2% 0.0 mm 90 W/m2
14:14 13.7 °C 10.1 °C 1023.7 hPa South 0.8 km/h 7.9 km/h 79.2% 0.0 mm 95 W/m2
14:19 13.6 °C 10 °C 1023.7 hPa Calm     79% 0.0 mm 102 W/m2
14:24 13.7 °C 10.1 °C 1023.7 hPa SSE 1.7 km/h 12.2 km/h 79% 0.0 mm 104 W/m2
14:29 13.7 °C 9.9 °C 1023.7 hPa South 0.1 km/h 7.9 km/h 78.1% 0.0 mm 106 W/m2
14:34 13.7 °C 10.1 °C 1023.7 hPa Calm   4 km/h 78.8% 0.0 mm 110 W/m2
14:39 13.8 °C 10.1 °C 1023.4 hPa SE 0.1 km/h 7.9 km/h 78.8% 0.0 mm 110 W/m2
14:44 13.8 °C 10 °C 1023.4 hPa Calm   4 km/h 78% 0.0 mm 108 W/m2
14:49 13.8 °C 10 °C 1023.4 hPa SE 0.4 km/h 4 km/h 77.9% 0.0 mm 99 W/m2
14:54 13.8 °C 9.9 °C 1023.4 hPa Calm   4 km/h 77.4% 0.0 mm 89 W/m2
14:59 13.9 °C 10.1 °C 1023.4 hPa Calm   4 km/h 78% 0.0 mm 76 W/m2
15:04 13.8 °C 10 °C 1023.4 hPa SE 0.5 km/h 7.9 km/h 78% 0.0 mm 64 W/m2
15:09 13.8 °C 10 °C 1023.4 hPa Calm     78% 0.0 mm 55 W/m2
15:14 13.8 °C 10.2 °C 1023.4 hPa Calm     79% 0.0 mm 51 W/m2
15:19 13.7 °C 10 °C 1023.4 hPa Calm     78.7% 0.0 mm 49 W/m2
15:24 13.7 °C 10 °C 1023.4 hPa SSE 0.4 km/h 7.9 km/h 78.7% 0.0 mm 47 W/m2
15:29 13.7 °C 10.3 °C 1023.4 hPa South 0.8 km/h 7.9 km/h 79.9% 0.0 mm 50 W/m2
15:34 13.6 °C 10.2 °C 1023.4 hPa South 0.1 km/h 7.9 km/h 80% 0.0 mm 52 W/m2
15:39 13.4 °C 10.1 °C 1023.7 hPa Calm   4 km/h 80.4% 0.0 mm 67 W/m2
15:44 13.5 °C 10.1 °C 1023.4 hPa Calm     79.8% 0.0 mm 59 W/m2
15:49 13.5 °C 10 °C 1023.4 hPa Calm     79.7% 0.0 mm 55 W/m2
15:54 13.5 °C 9.9 °C 1023.4 hPa Calm     79% 0.0 mm 50 W/m2
15:59 13.6 °C 10 °C 1023.4 hPa Calm     79.1% 0.0 mm 51 W/m2
16:04 13.6 °C 10.2 °C 1023.4 hPa Calm     80% 0.0 mm 49 W/m2
16:09 13.6 °C 10.2 °C 1023.4 hPa Calm     80% 0.0 mm 47 W/m2
16:14 13.6 °C 10.4 °C 1023.4 hPa South 0.8 km/h 7.9 km/h 81% 0.0 mm 41 W/m2
16:19 13.3 °C 10.3 °C 1023.4 hPa South 0.1 km/h 7.9 km/h 82% 0.0 mm 36 W/m2
16:24 13.2 °C 10.4 °C 1023.4 hPa Calm     82.8% 0.0 mm 28 W/m2
16:29 13.2 °C 10.4 °C 1023.4 hPa South 0.4 km/h 7.9 km/h 83% 0.0 mm 26 W/m2
16:34 13.2 °C 10.4 °C 1023.4 hPa Calm     83% 0.0 mm 24 W/m2
16:39 12.9 °C 10.1 °C 1023.4 hPa Calm     83% 0.0 mm 20 W/m2
16:44 12.9 °C 10.3 °C 1023.4 hPa Calm     84% 0.0 mm 17 W/m2
16:49 12.8 °C 10.2 °C 1023.4 hPa Calm   4 km/h 84% 0.0 mm 12 W/m2
16:54 12.8 °C 10.1 °C 1023.4 hPa Calm     83.7% 0.0 mm 10 W/m2
16:59 12.7 °C 10.1 °C 1023.4 hPa Calm     84.1% 0.0 mm 8 W/m2
17:04 12.6 °C 10 °C 1023.4 hPa Calm     84.3% 0.0 mm 6 W/m2
17:09 12.6 °C 10.1 °C 1023.4 hPa Calm     85% 0.0 mm 4 W/m2
17:14 12.5 °C 10 °C 1023.4 hPa Calm     85% 0.0 mm 2 W/m2
17:19 11.8 °C 9.6 °C 1023.4 hPa Calm     86% 0.0 mm 0 W/m2
17:24 11.8 °C 9.8 °C 1023.4 hPa Calm     87.3% 0.0 mm 0 W/m2
17:29 11.7 °C 9.6 °C 1023.4 hPa Calm     86.9% 0.0 mm 0 W/m2
17:34 11.6 °C 9.3 °C 1023.7 hPa Calm     86% 0.0 mm 0 W/m2
17:39 11.3 °C 9 °C 1023.4 hPa Calm     86.1% 0.0 mm 0 W/m2
17:44 11.2 °C 9.1 °C 1023.4 hPa Calm     87% 0.0 mm 0 W/m2
17:49 11.2 °C 9.1 °C 1023.4 hPa Calm     87% 0.0 mm 0 W/m2
17:54 11.1 °C 9.1 °C 1023.4 hPa Calm     87.2% 0.0 mm 0 W/m2
17:59 10.8 °C 8.9 °C 1023.7 hPa Calm     88% 0.0 mm 0 W/m2
18:04 10.8 °C 8.9 °C 1023.4 hPa Calm     88% 0.0 mm 0 W/m2
18:09 10.8 °C 8.9 °C 1023.7 hPa Calm     88% 0.0 mm 0 W/m2
18:14 10.7 °C 8.8 °C 1023.7 hPa Calm     88% 0.0 mm 0 W/m2
18:19 10.8 °C 8.9 °C 1023.7 hPa Calm     88% 0.0 mm 0 W/m2
18:24 10.8 °C 8.9 °C 1023.7 hPa West 0.4 km/h 7.9 km/h 88% 0.0 mm 0 W/m2
18:29 10.7 °C 8.8 °C 1023.7 hPa Calm   7.9 km/h 88.2% 0.0 mm 0 W/m2
18:34 10.7 °C 9 °C 1023.7 hPa Calm     89% 0.0 mm 0 W/m2
18:39 10.6 °C 8.8 °C 1024.0 hPa Calm     88.2% 0.0 mm 0 W/m2
18:44 10.6 °C 8.7 °C 1024.0 hPa Calm     88% 0.0 mm 0 W/m2
18:49 10.6 °C 8.7 °C 1024.0 hPa Calm     88% 0.0 mm 0 W/m2
18:54 10.6 °C 8.7 °C 1024.0 hPa West 0.1 km/h 4 km/h 88% 0.0 mm 0 W/m2
18:59 10.4 °C 8.5 °C 1024.0 hPa Calm     88% 0.0 mm 0 W/m2
19:04 10.4 °C 8.4 °C 1024.0 hPa Calm     87.6% 0.0 mm 0 W/m2
19:09 10.5 °C 8.4 °C 1024.0 hPa Calm     87% 0.0 mm 0 W/m2
19:14 10.4 °C 8.3 °C 1024.0 hPa Calm     87% 0.0 mm 0 W/m2
19:19 10.5 °C 8.3 °C 1024.0 hPa Calm     86.6% 0.0 mm 0 W/m2
19:24 10.5 °C 8.2 °C 1024.0 hPa Calm     85.8% 0.0 mm 0 W/m2
19:29 10.5 °C 8.1 °C 1024.0 hPa Calm     85% 0.0 mm 0 W/m2
19:34 10.5 °C 8.1 °C 1024.4 hPa Calm     84.9% 0.0 mm 0 W/m2
19:39 10.6 °C 8.1 °C 1024.0 hPa Calm     84.4% 0.0 mm 0 W/m2
19:44 10.6 °C 8.2 °C 1024.0 hPa Calm     85% 0.0 mm 0 W/m2
19:49 10.6 °C 8.4 °C 1024.4 hPa Calm     85.9% 0.0 mm 0 W/m2
19:54 10.6 °C 8.4 °C 1024.4 hPa Calm     86.2% 0.0 mm 0 W/m2
19:59 10.5 °C 8.4 °C 1024.4 hPa Calm     86.9% 0.0 mm 0 W/m2
20:04 10.5 °C 8.5 °C 1024.4 hPa Calm     87.7% 0.0 mm 0 W/m2
20:09 10.5 °C 8.6 °C 1024.4 hPa Calm     87.9% 0.0 mm 0 W/m2
20:14 10.5 °C 8.6 °C 1024.4 hPa Calm     88% 0.0 mm 0 W/m2
20:19 10.6 °C 8.7 °C 1024.4 hPa Calm     88% 0.0 mm 0 W/m2
20:24 10.6 °C 8.7 °C 1024.4 hPa Calm     88% 0.0 mm 0 W/m2
20:29 10.5 °C 8.8 °C 1024.4 hPa Calm     88.9% 0.0 mm 0 W/m2
20:34 10.5 °C 8.8 °C 1024.4 hPa Calm     89% 0.0 mm 0 W/m2
20:39 10.5 °C 8.8 °C 1024.0 hPa Calm     89% 0.0 mm 0 W/m2
20:44 10.4 °C 8.7 °C 1024.0 hPa Calm     89% 0.0 mm 0 W/m2
20:49 10.4 °C 8.7 °C 1024.4 hPa Calm     89% 0.0 mm 0 W/m2
20:54 10.4 °C 8.7 °C 1024.4 hPa Calm     89% 0.0 mm 0 W/m2
20:59 10.4 °C 8.7 °C 1024.4 hPa Calm     89% 0.0 mm 0 W/m2
21:04 10.4 °C 8.8 °C 1024.4 hPa Calm     90% 0.0 mm 0 W/m2
21:09 10.4 °C 8.8 °C 1024.4 hPa Calm     90% 0.0 mm 0 W/m2
21:14 10.4 °C 8.8 °C 1024.4 hPa Calm     90% 0.0 mm 0 W/m2
21:19 10.4 °C 8.8 °C 1024.4 hPa Calm     90% 0.0 mm 0 W/m2
21:24 10.4 °C 8.8 °C 1024.4 hPa Calm     90% 0.0 mm 0 W/m2
21:29 10.4 °C 8.8 °C 1024.4 hPa Calm     90% 0.0 mm 0 W/m2
21:34 10.4 °C 8.8 °C 1024.4 hPa Calm     90% 0.0 mm 0 W/m2
21:39 10.4 °C 8.8 °C 1024.4 hPa Calm     90% 0.0 mm 0 W/m2
21:44 10.4 °C 8.8 °C 1024.0 hPa Calm     90.1% 0.0 mm 0 W/m2
21:49 10.4 °C 9 °C 1024.4 hPa Calm     91% 0.0 mm 0 W/m2
21:54 10.4 °C 9 °C 1024.4 hPa WNW 0.3 km/h 4 km/h 91% 0.0 mm 0 W/m2
21:59 10.2 °C 8.8 °C 1024.4 hPa WSW 0.1 km/h 4 km/h 91% 0.0 mm 0 W/m2
22:04 10.1 °C 8.7 °C 1024.4 hPa Calm   4 km/h 91% 0.0 mm 0 W/m2
22:09 10.1 °C 8.8 °C 1024.4 hPa Calm   4 km/h 91.2% 0.0 mm 0 W/m2
22:14 10.1 °C 8.8 °C 1024.7 hPa SW 0.2 km/h 4 km/h 91.7% 0.0 mm 0 W/m2
22:19 10.1 °C 8.8 °C 1024.7 hPa Calm     91.6% 0.0 mm 0 W/m2
22:24 10 °C 8.8 °C 1024.4 hPa Calm     92% 0.0 mm 0 W/m2
22:29 10.1 °C 8.7 °C 1024.4 hPa Calm   4 km/h 91.1% 0.0 mm 0 W/m2
22:34 10.1 °C 8.7 °C 1024.4 hPa Calm   4 km/h 91% 0.0 mm 0 W/m2
22:39 10 °C 8.6 °C 1024.4 hPa Calm     91.2% 0.0 mm 0 W/m2
22:44 9.8 °C 8.8 °C 1024.4 hPa Calm     93.4% 0.0 mm 0 W/m2
22:49 9.7 °C 8.7 °C 1024.4 hPa Calm     93.4% 0.0 mm 0 W/m2
22:54 9.6 °C 8.5 °C 1024.0 hPa Calm     93% 0.0 mm 0 W/m2
22:59 9.6 °C 8.5 °C 1024.0 hPa Calm     92.8% 0.0 mm 0 W/m2
23:04 9.5 °C 8.4 °C 1024.0 hPa Calm     93% 0.0 mm 0 W/m2
23:09 9.5 °C 8.6 °C 1024.0 hPa Calm     94% 0.0 mm 0 W/m2
23:14 9.5 °C 8.4 °C 1024.0 hPa Calm     93.1% 0.0 mm 0 W/m2
23:19 9.3 °C 8.3 °C 1024.0 hPa Calm     93.5% 0.0 mm 0 W/m2
23:24 9.1 °C 8.2 °C 1024.0 hPa Calm     94% 0.0 mm 0 W/m2
23:29 9.1 °C 8.1 °C 1024.0 hPa Calm     93.4% 0.0 mm 0 W/m2
23:34 9.2 °C 8.1 °C 1024.4 hPa Calm     93.2% 0.0 mm 0 W/m2
23:39 9.2 °C 8.3 °C 1024.4 hPa Calm     94% 0.0 mm 0 W/m2
23:44 9.3 °C 8.4 °C 1024.4 hPa Calm     94% 0.0 mm 0 W/m2
23:49 9.3 °C 8.4 °C 1024.4 hPa Calm     94% 0.0 mm 0 W/m2
23:54 9.3 °C 8.2 °C 1024.4 hPa Calm     93% 0.0 mm 0 W/m2
23:59 9.3 °C 8.2 °C 1024.0 hPa Calm     93% 0.0 mm 0 W/m2
Juneau County Weather
Compliments of Weather Underground - 2 mb